Cookeville, TN (38502)

9:50 PM CDT on October 22, 2014 (GMT -0500)
Millard Oakley STEM Center | Change Station
CLOSE
Current Station
Personal Weather Station
Location: Cookeville, TN
Elevation: 1122 ft
Nearby Weather Stations
Active Advisory: Frost Advisory

Elev 1122 ft 36.17 °N, 85.51 °W | Updated 3 seconds ago

Clear
Clear
48.3 °F
Feels Like 48 °F
N
2.0
Wind Variable Wind from East
Gusts 6.0 mph

Today
High -- | Low -- °F
--% Chance of Precip.
Yesterday
High -- | Low -- °F
Precip. -- in
6:55 AM 5:57 PM
Waning Crescent, 1% visible
Pressure 30.22 in
Visibility 10.0 miles
Clouds Clear
Windchill 48 °F
Dew Point 42 °F
Humidity 79%
Rainfall 0.00 in
Snow Depth Not available.
UV 0.0 out of 12
Pollen 1.90 out of 12
Air Quality Not available.
Flu Activity Sporadic
METAR KSRB 230155Z AUTO 08006KT 10SM CLR 08/06 A3022 RMK

More Conditions Fewer Conditions

Pressure 30.22 in
Visibility 10.0 miles
Clouds Clear
Windchill 48 °F
Dew Point 42 °F
Humidity 79%
Rainfall 0.00 in
Snow Depth Not available.
UV 0.0 out of 12
Pollen 1.90 out of 12
Air Quality Not available.
Flu Activity Sporadic
METAR KSRB 230155Z AUTO 08006KT 10SM CLR 08/06 A3022 RMK

More Conditions Fewer Conditions

10-Day Weather Forecast

Almanac

Astronomy

Oct. 22, 2014 Rise Set
Actual Time 6:55 AM CDT 5:57 PM CDT
Civil Twilight 6:29 AM CDT 6:23 PM CDT
Nautical Twilight 5:59 AM CDT 6:53 PM CDT
Astronomical Twilight 5:29 AM CDT 7:22 PM CDT
Moon 5:38 AM CDT (10/22) 5:21 PM CDT (10/22)
Length of Visible Light 11h 54m
Length of Day
11h 01m
Tomorrow will be 2m 8s shorter.
Waning Crescent, 1% of the Moon is Illuminated
Today
Waning Crescent
Oct 23
New
Oct 30
First Quarter
Nov 6
Full
Nov 14
Last Quarter

Today's Extremes

State Highs State Lows

Community

WunderPhotos

Upload Photos

1,764,115 photos uploaded!

Nearby

Snow Depth

Station Depth Elevation
No new snow has been reported.

Earthquake Activity

City Distance Mag. Time & Date
No recent earthquake activity has been reported nearby.
Minimum magnitude displayed is 2.5.

Coastal Water Temperatures

Place Temperature
No Stations Reporting

Nearby Weather Stations